createdAt,value
2022-10-31T00:01:34.409Z,9.88
2022-10-31T00:04:07.275Z,9.25
2022-10-31T00:06:39.329Z,10.32
2022-10-31T00:09:11.878Z,8.15
2022-10-31T00:11:43.885Z,8.57
2022-10-31T00:14:15.837Z,9.38
2022-10-31T00:16:47.941Z,8.80
2022-10-31T00:19:19.915Z,9.95
2022-10-31T00:21:53.306Z,8.98
2022-10-31T00:24:25.301Z,8.40
2022-10-31T00:26:57.346Z,8.70
2022-10-31T00:29:29.326Z,8.45
2022-10-31T00:32:01.740Z,7.80
2022-10-31T00:34:33.981Z,8.05
2022-10-31T00:37:06.038Z,8.25
2022-10-31T00:39:37.972Z,8.15
2022-10-31T00:42:10.166Z,7.82
2022-10-31T00:44:42.122Z,8.07
2022-10-31T00:47:14.195Z,7.25
2022-10-31T00:49:46.289Z,7.47
2022-10-31T00:52:18.604Z,8.23
2022-10-31T00:54:50.565Z,8.02
2022-10-31T00:57:22.634Z,7.15
2022-10-31T00:59:54.694Z,8.48
2022-10-31T01:02:26.865Z,8.50
2022-10-31T01:04:59.022Z,7.60
2022-10-31T01:07:31.172Z,7.13
2022-10-31T01:10:04.057Z,7.35
2022-10-31T01:12:44.784Z,7.00
2022-10-31T01:15:20.974Z,7.30
2022-10-31T01:17:52.945Z,7.82
2022-10-31T01:20:24.933Z,7.30
2022-10-31T01:22:56.908Z,7.70
2022-10-31T01:25:29.874Z,7.00
2022-10-31T01:28:02.444Z,7.10
2022-10-31T01:30:34.594Z,6.90
2022-10-31T01:33:06.595Z,7.13
2022-10-31T01:35:38.570Z,6.10
2022-10-31T01:38:10.594Z,5.97
2022-10-31T01:40:42.655Z,6.00
2022-10-31T01:43:15.372Z,6.13
2022-10-31T01:45:54.881Z,6.45
2022-10-31T01:48:29.257Z,5.95
2022-10-31T01:51:01.521Z,6.25
2022-10-31T01:53:34.209Z,5.80
2022-10-31T01:56:06.996Z,7.22
2022-10-31T01:58:40.049Z,6.90
2022-10-31T02:01:14.284Z,6.32
2022-10-31T02:03:48.762Z,7.25
2022-10-31T02:06:32.367Z,6.40
2022-10-31T02:09:06.617Z,5.88
2022-10-31T02:11:39.034Z,6.03
2022-10-31T02:14:11.416Z,5.85
2022-10-31T02:16:43.389Z,6.53
2022-10-31T02:19:23.184Z,5.57
2022-10-31T02:22:06.667Z,5.82
2022-10-31T02:24:59.154Z,6.32
2022-10-31T02:27:37.059Z,5.75
2022-10-31T02:30:15.916Z,5.82
2022-10-31T02:33:35.849Z,6.50
2022-10-31T02:36:22.949Z,6.03
2022-10-31T02:39:25.908Z,5.35
2022-10-31T02:42:13.732Z,6.43
2022-10-31T02:44:50.908Z,5.10
2022-10-31T02:47:33.704Z,5.75
2022-10-31T02:50:29.708Z,5.88
2022-10-31T02:53:03.009Z,5.75
2022-10-31T02:55:36.151Z,5.88
2022-10-31T03:01:00.737Z,6.55
2022-10-31T03:03:44.876Z,5.88
2022-10-31T03:06:25.718Z,5.70
2022-10-31T03:09:03.473Z,5.75
2022-10-31T03:11:48.361Z,5.43
2022-10-31T03:14:36.568Z,5.88
2022-10-31T03:17:16.530Z,5.57
2022-10-31T03:19:54.689Z,5.30
2022-10-31T03:22:30.649Z,5.75
2022-10-31T03:25:06.891Z,5.95
2022-10-31T03:27:41.296Z,6.07
2022-10-31T03:30:14.314Z,5.47
2022-10-31T03:33:10.845Z,5.75
2022-10-31T03:35:47.986Z,4.88
2022-10-31T03:38:20.943Z,6.10
2022-10-31T03:40:55.600Z,6.00
2022-10-31T03:43:33.417Z,5.63
2022-10-31T03:46:06.573Z,5.72
2022-10-31T03:48:39.511Z,6.55
2022-10-31T03:51:31.509Z,6.00
2022-10-31T03:54:18.769Z,6.10
2022-10-31T03:56:59.081Z,6.38
2022-10-31T03:59:36.402Z,5.25
2022-10-31T04:02:14.584Z,5.32
2022-10-31T04:04:49.575Z,6.20
2022-10-31T04:07:24.508Z,5.40
2022-10-31T04:09:59.922Z,5.63
2022-10-31T04:12:33.435Z,5.65
2022-10-31T04:15:16.652Z,5.53
2022-10-31T04:17:51.440Z,5.45
2022-10-31T04:20:35.155Z,4.80
2022-10-31T04:23:20.476Z,5.93
2022-10-31T04:25:54.477Z,5.30
2022-10-31T04:28:26.480Z,5.95
2022-10-31T04:30:58.533Z,5.03
2022-10-31T04:33:30.654Z,5.32
2022-10-31T04:36:02.701Z,5.53
2022-10-31T04:38:35.516Z,4.72
2022-10-31T04:41:12.901Z,5.22
2022-10-31T04:43:55.715Z,5.35
2022-10-31T04:46:27.799Z,5.38
2022-10-31T04:51:33.843Z,5.43
2022-10-31T04:54:06.282Z,5.30
2022-10-31T04:56:58.180Z,5.88
2022-10-31T04:59:30.225Z,5.25
2022-10-31T05:02:04.066Z,6.07
2022-10-31T05:04:50.210Z,6.30
2022-10-31T05:07:23.407Z,6.28
2022-10-31T05:09:55.403Z,5.32
2022-10-31T05:12:27.414Z,5.20
2022-10-31T05:15:24.250Z,4.78
2022-10-31T05:18:14.915Z,6.22
2022-10-31T05:21:15.515Z,5.55
2022-10-31T05:23:55.020Z,5.53
2022-10-31T05:26:29.259Z,5.97
2022-10-31T05:29:01.791Z,5.57
2022-10-31T05:31:34.405Z,6.23
2022-10-31T05:34:07.922Z,6.40
2022-10-31T05:36:58.404Z,6.43
2022-10-31T05:39:30.827Z,6.75
2022-10-31T05:42:07.154Z,6.53
2022-10-31T05:44:39.143Z,7.45
2022-10-31T05:47:38.495Z,6.43
2022-10-31T05:50:46.085Z,6.75
2022-10-31T05:53:18.228Z,6.68
2022-10-31T05:55:50.925Z,7.10
2022-10-31T05:58:25.493Z,6.20
2022-10-31T06:01:10.739Z,6.80
2022-10-31T06:03:43.751Z,6.13
2022-10-31T06:06:15.968Z,6.43
2022-10-31T06:08:47.945Z,6.18
2022-10-31T06:11:24.236Z,5.20
2022-10-31T06:14:06.126Z,5.32
2022-10-31T06:16:59.473Z,6.35
2022-10-31T06:22:51.481Z,6.20
2022-10-31T06:25:23.499Z,6.75
2022-10-31T06:27:56.012Z,7.25
2022-10-31T06:30:32.536Z,5.90
2022-10-31T06:33:07.841Z,5.88
2022-10-31T06:35:48.155Z,6.57
2022-10-31T06:38:21.660Z,5.85
2022-10-31T06:40:54.392Z,6.85
2022-10-31T06:43:28.207Z,5.80
2022-10-31T06:46:22.661Z,6.78
2022-10-31T06:49:19.592Z,6.55
2022-10-31T06:51:56.266Z,6.35
2022-10-31T06:54:28.653Z,6.43
2022-10-31T06:57:00.890Z,6.13
2022-10-31T06:59:34.039Z,7.65
2022-10-31T07:02:12.627Z,6.78
2022-10-31T07:04:47.208Z,5.85
2022-10-31T07:09:55.835Z,6.47
2022-10-31T07:12:43.467Z,6.10
2022-10-31T07:15:15.865Z,6.10
2022-10-31T07:17:48.776Z,7.20
2022-10-31T07:20:21.392Z,5.78
2022-10-31T07:22:53.772Z,5.90
2022-10-31T07:25:26.237Z,5.75
2022-10-31T07:28:18.041Z,7.50
2022-10-31T07:30:55.778Z,5.13
2022-10-31T07:33:28.083Z,6.32
2022-10-31T07:36:18.677Z,5.82
2022-10-31T07:38:53.323Z,5.50
2022-10-31T07:41:25.735Z,5.43
2022-10-31T07:43:58.428Z,5.47
2022-10-31T07:46:49.147Z,5.22
2022-10-31T07:49:30.174Z,5.47
2022-10-31T07:52:20.652Z,5.32
2022-10-31T07:55:11.767Z,5.57
2022-10-31T07:57:44.157Z,5.70
2022-10-31T08:00:17.120Z,5.90
2022-10-31T08:02:49.069Z,5.50
2022-10-31T08:05:41.048Z,5.50
2022-10-31T08:08:48.183Z,5.22
2022-10-31T08:11:20.684Z,8.35
2022-10-31T08:13:53.560Z,7.00
2022-10-31T08:16:25.745Z,6.18
2022-10-31T08:19:05.353Z,5.85
2022-10-31T08:21:42.677Z,6.07
2022-10-31T08:24:14.974Z,5.82
2022-10-31T08:26:48.150Z,6.70
2022-10-31T08:29:20.586Z,5.85
2022-10-31T08:31:53.011Z,6.17
2022-10-31T08:34:43.857Z,6.72
2022-10-31T08:37:39.360Z,7.95
2022-10-31T08:40:14.126Z,9.02
2022-10-31T08:42:46.339Z,7.70
2022-10-31T08:45:18.401Z,7.57
2022-10-31T08:47:50.691Z,8.90
2022-10-31T08:50:23.257Z,8.10
2022-10-31T08:53:05.092Z,8.70
2022-10-31T08:55:40.113Z,8.90
2022-10-31T08:58:28.303Z,8.20
2022-10-31T09:01:04.791Z,8.43
2022-10-31T09:03:37.089Z,9.27
2022-10-31T09:06:10.628Z,8.82
2022-10-31T09:08:43.231Z,8.52
2022-10-31T09:11:16.424Z,8.15
2022-10-31T09:14:07.415Z,7.53
2022-10-31T09:16:59.540Z,6.88
2022-10-31T09:19:46.000Z,6.53
2022-10-31T09:22:18.046Z,6.65
2022-10-31T09:24:50.054Z,6.50
2022-10-31T09:27:22.282Z,5.65
2022-10-31T09:29:54.383Z,6.60
2022-10-31T09:32:26.626Z,7.15
2022-10-31T09:34:58.819Z,7.15
2022-10-31T09:37:31.079Z,7.13
2022-10-31T09:40:04.258Z,5.63
2022-10-31T09:42:46.523Z,5.13
2022-10-31T09:45:36.145Z,5.03
2022-10-31T09:48:31.474Z,5.03
2022-10-31T09:51:31.620Z,4.28
2022-10-31T09:54:51.591Z,3.95
2022-10-31T09:57:31.019Z,4.70
2022-10-31T10:00:06.476Z,4.10
2022-10-31T10:02:49.023Z,3.97
2022-10-31T10:05:35.262Z,3.95
2022-10-31T10:08:17.676Z,4.03
2022-10-31T10:11:57.010Z,4.28
2022-10-31T10:14:47.244Z,4.32
2022-10-31T10:17:33.071Z,4.88
2022-10-31T10:20:45.682Z,4.68
2022-10-31T10:23:33.159Z,4.25
2022-10-31T10:26:14.062Z,5.00
2022-10-31T10:28:58.101Z,3.95
2022-10-31T10:31:41.419Z,4.55
2022-10-31T10:34:33.096Z,4.60
2022-10-31T10:37:18.615Z,4.45
2022-10-31T10:39:56.038Z,4.05
2022-10-31T10:42:47.388Z,4.20
2022-10-31T10:45:39.365Z,5.35
2022-10-31T10:48:17.378Z,4.50
2022-10-31T10:50:52.288Z,4.40
2022-10-31T10:53:33.467Z,4.07
2022-10-31T10:56:14.932Z,4.55
2022-10-31T10:58:47.082Z,4.80
2022-10-31T11:01:19.133Z,4.40
2022-10-31T11:03:51.774Z,4.57
2022-10-31T11:06:28.578Z,4.20
2022-10-31T11:09:11.515Z,4.43
2022-10-31T11:11:44.002Z,4.17
2022-10-31T11:14:18.767Z,5.50
2022-10-31T11:17:15.232Z,5.10
2022-10-31T11:19:47.196Z,4.43
2022-10-31T11:22:19.332Z,5.35
2022-10-31T11:24:51.827Z,4.57
2022-10-31T11:27:26.724Z,4.80
2022-10-31T11:30:07.035Z,4.85
2022-10-31T11:32:48.929Z,5.25
2022-10-31T11:35:24.155Z,4.38
2022-10-31T11:38:00.278Z,4.50
2022-10-31T11:40:32.658Z,4.55
2022-10-31T11:43:04.692Z,5.47
2022-10-31T11:45:38.094Z,5.30
2022-10-31T11:48:23.268Z,5.35
2022-10-31T11:50:59.697Z,5.13
2022-10-31T11:53:35.163Z,4.85
2022-10-31T11:56:14.540Z,4.43
2022-10-31T11:59:06.702Z,4.55
2022-10-31T12:01:44.193Z,5.38
2022-10-31T12:04:20.584Z,5.97
2022-10-31T12:06:53.965Z,5.38
2022-10-31T12:09:31.554Z,4.43
2022-10-31T12:12:09.338Z,4.35
2022-10-31T12:14:47.432Z,4.18
2022-10-31T12:17:25.708Z,4.47
2022-10-31T12:20:01.472Z,4.97
2022-10-31T12:22:57.965Z,5.57
2022-10-31T12:25:47.640Z,4.70
2022-10-31T12:28:25.925Z,4.72
2022-10-31T12:31:19.346Z,4.32
2022-10-31T12:34:31.065Z,5.05
2022-10-31T12:37:18.055Z,4.80
2022-10-31T12:40:20.574Z,6.35
2022-10-31T12:43:10.782Z,5.35
2022-10-31T12:45:55.757Z,5.18
2022-10-31T12:48:58.475Z,4.90
2022-10-31T12:51:39.637Z,5.97
2022-10-31T12:54:37.848Z,5.13
2022-10-31T12:57:12.613Z,5.20
2022-10-31T12:59:49.641Z,5.50
2022-10-31T13:02:27.914Z,5.25
2022-10-31T13:05:32.810Z,5.22
2022-10-31T13:08:23.388Z,5.72
2022-10-31T13:11:18.171Z,5.97
2022-10-31T13:14:11.970Z,5.60
2022-10-31T13:16:48.611Z,5.75
2022-10-31T13:19:30.296Z,5.28
2022-10-31T13:22:21.855Z,6.05
2022-10-31T13:25:17.219Z,5.90
2022-10-31T13:28:01.909Z,5.15
2022-10-31T13:30:39.164Z,5.25
2022-10-31T13:33:17.833Z,5.50
2022-10-31T13:36:04.346Z,5.43
2022-10-31T13:39:01.150Z,5.80
2022-10-31T13:41:52.191Z,6.05
2022-10-31T13:44:37.401Z,5.53
2022-10-31T13:47:39.441Z,5.55
2022-10-31T13:50:26.767Z,6.70
2022-10-31T13:53:19.095Z,5.38
2022-10-31T13:56:08.724Z,5.63
2022-10-31T13:58:56.943Z,6.07
2022-10-31T14:01:31.047Z,5.53
2022-10-31T14:04:19.187Z,5.90
2022-10-31T14:07:11.107Z,5.80
2022-10-31T14:09:48.943Z,6.13
2022-10-31T14:12:32.345Z,54.80
2022-10-31T14:15:26.573Z,8.43
2022-10-31T14:18:07.702Z,7.20
2022-10-31T14:20:46.847Z,6.28
2022-10-31T14:23:41.649Z,7.63
2022-10-31T14:26:27.323Z,6.07
2022-10-31T14:29:04.304Z,7.03
2022-10-31T14:31:56.379Z,6.22
2022-10-31T14:34:37.677Z,5.95
2022-10-31T14:37:41.752Z,7.05
2022-10-31T14:40:32.928Z,7.72
2022-10-31T14:43:26.329Z,6.80
2022-10-31T14:46:33.664Z,5.90
2022-10-31T14:49:26.478Z,7.00
2022-10-31T14:52:00.354Z,6.93
2022-10-31T14:54:37.478Z,7.72
2022-10-31T14:57:20.145Z,7.03
2022-10-31T15:00:03.758Z,7.28
2022-10-31T15:02:56.707Z,7.18
2022-10-31T15:05:29.522Z,7.03
2022-10-31T15:08:01.884Z,8.00
2022-10-31T15:10:38.291Z,7.18
2022-10-31T15:13:22.687Z,7.57
2022-10-31T15:15:56.776Z,6.40
2022-10-31T15:18:29.960Z,6.97
2022-10-31T15:21:07.387Z,7.53
2022-10-31T15:23:43.222Z,8.80
2022-10-31T15:26:23.852Z,7.53
2022-10-31T15:29:05.723Z,6.97
2022-10-31T15:31:37.879Z,7.65
2022-10-31T15:34:21.107Z,7.15
2022-10-31T15:36:53.791Z,7.75
2022-10-31T15:39:26.007Z,8.10
2022-10-31T15:41:59.483Z,7.53
2022-10-31T15:44:38.311Z,7.57
2022-10-31T15:47:22.610Z,8.35
2022-10-31T15:49:56.818Z,7.72
2022-10-31T15:52:45.391Z,7.32
2022-10-31T15:55:29.224Z,6.93
2022-10-31T15:58:13.749Z,7.57
2022-10-31T16:00:46.573Z,6.28
2022-10-31T16:03:18.752Z,6.65
2022-10-31T16:06:21.531Z,6.85
2022-10-31T16:08:53.767Z,7.22
2022-10-31T16:11:30.789Z,8.15
2022-10-31T16:14:26.486Z,7.45
2022-10-31T16:17:00.611Z,8.13
2022-10-31T16:19:38.920Z,8.50
2022-10-31T16:22:14.738Z,7.32
2022-10-31T16:25:02.298Z,8.18
2022-10-31T16:27:36.890Z,9.75
2022-10-31T16:30:46.809Z,8.73
2022-10-31T16:33:37.273Z,9.27
2022-10-31T16:36:36.343Z,14.15
2022-10-31T16:39:09.527Z,141.95
2022-10-31T16:41:44.048Z,683.67
2022-10-31T16:44:26.556Z,459.63
2022-10-31T16:47:16.535Z,88.28
2022-10-31T16:49:50.716Z,146.25
2022-10-31T16:52:22.998Z,45.20
2022-10-31T16:54:55.762Z,56.13
2022-10-31T16:57:30.432Z,222.73
2022-10-31T17:00:02.828Z,48.63
2022-10-31T17:02:35.214Z,70.80
2022-10-31T17:05:10.251Z,19.83
2022-10-31T17:07:42.439Z,582.03
2022-10-31T17:10:15.973Z,608.97
2022-10-31T17:12:50.474Z,505.88
2022-10-31T17:15:27.104Z,112.07
2022-10-31T17:17:59.461Z,48.45
2022-10-31T17:20:32.281Z,645.22
2022-10-31T17:23:04.742Z,87.82
2022-10-31T17:25:37.514Z,10.60
2022-10-31T17:28:13.763Z,15.00
2022-10-31T17:30:46.126Z,289.85
2022-10-31T17:33:18.423Z,273.92
2022-10-31T17:35:50.936Z,208.82
2022-10-31T17:38:23.079Z,277.02
2022-10-31T17:40:55.128Z,234.57
2022-10-31T17:43:27.705Z,81.35
2022-10-31T17:46:01.389Z,121.78
2022-10-31T17:48:35.075Z,285.02
2022-10-31T17:53:40.041Z,26.90
2022-10-31T17:56:12.259Z,24.50
2022-10-31T17:58:44.284Z,22.10
2022-10-31T18:01:17.815Z,14.05
2022-10-31T18:06:21.993Z,16.55
2022-10-31T18:08:56.266Z,17.20
2022-10-31T18:11:28.438Z,45.88
2022-10-31T18:14:01.017Z,150.93
2022-10-31T18:16:33.184Z,135.88
2022-10-31T18:19:06.317Z,567.92
2022-10-31T18:21:38.388Z,543.10
2022-10-31T18:24:10.755Z,364.52
2022-10-31T18:26:42.998Z,129.05
2022-10-31T18:29:15.209Z,96.00
2022-10-31T18:31:48.670Z,91.95
2022-10-31T18:34:20.909Z,278.13
2022-10-31T18:36:52.995Z,708.90
2022-10-31T18:39:25.236Z,964.85
2022-10-31T18:41:57.586Z,653.08
2022-10-31T18:44:30.619Z,579.25
2022-10-31T18:47:02.791Z,853.53
2022-10-31T18:49:34.815Z,431.60
2022-10-31T18:52:06.847Z,378.13
2022-10-31T18:54:38.868Z,341.42
2022-10-31T18:57:10.963Z,301.38
2022-10-31T18:59:43.074Z,285.45
2022-10-31T19:02:15.277Z,143.70
2022-10-31T19:04:47.348Z,713.50
2022-10-31T19:07:19.385Z,346.98
2022-10-31T19:09:51.387Z,399.65
2022-10-31T19:12:23.412Z,483.25
2022-10-31T19:14:55.696Z,499.17
2022-10-31T19:17:27.799Z,516.85
2022-10-31T19:19:59.839Z,632.38
2022-10-31T19:22:32.394Z,572.60
2022-10-31T19:25:07.665Z,312.00
2022-10-31T19:27:42.664Z,305.58
2022-10-31T19:30:14.666Z,85.63
2022-10-31T19:32:46.892Z,66.80
2022-10-31T19:35:19.185Z,67.00
2022-10-31T19:37:51.169Z,89.72
2022-10-31T19:40:23.215Z,51.42
2022-10-31T19:42:55.319Z,52.20
2022-10-31T19:45:27.600Z,48.42
2022-10-31T19:48:00.022Z,259.25
2022-10-31T19:50:32.321Z,101.83
2022-10-31T19:53:07.203Z,96.60
2022-10-31T19:55:42.987Z,76.22
2022-10-31T19:58:15.197Z,69.45
2022-10-31T20:00:47.476Z,49.38
2022-10-31T20:03:22.427Z,43.22
2022-10-31T20:05:54.743Z,52.47
2022-10-31T20:08:26.945Z,46.35
2022-10-31T20:11:03.395Z,44.92
2022-10-31T20:13:35.360Z,45.42
2022-10-31T20:16:10.440Z,45.40
2022-10-31T20:18:44.281Z,42.55
2022-10-31T20:21:18.978Z,39.90
2022-10-31T20:24:02.254Z,35.67
2022-10-31T20:26:35.543Z,35.03
2022-10-31T20:29:08.193Z,36.65
2022-10-31T20:31:40.225Z,43.13
2022-10-31T20:34:12.453Z,43.80
2022-10-31T20:36:44.487Z,40.38
2022-10-31T20:39:16.702Z,34.97
2022-10-31T20:41:48.862Z,36.42
2022-10-31T20:44:21.009Z,35.13
2022-10-31T20:46:53.477Z,36.65
2022-10-31T20:49:25.592Z,36.25
2022-10-31T20:51:57.780Z,34.13
2022-10-31T20:54:29.798Z,33.47
2022-10-31T20:57:01.747Z,31.40
2022-10-31T20:59:33.717Z,29.52
2022-10-31T21:02:06.040Z,29.33
2022-10-31T21:04:38.195Z,25.45
2022-10-31T21:07:10.176Z,26.15
2022-10-31T21:09:42.187Z,25.65
2022-10-31T21:12:14.167Z,23.77
2022-10-31T21:14:46.184Z,25.25
2022-10-31T21:17:18.179Z,23.90
2022-10-31T21:19:50.150Z,24.73
2022-10-31T21:22:22.498Z,21.25
2022-10-31T21:24:54.805Z,23.50
2022-10-31T21:27:26.933Z,21.45
2022-10-31T21:29:59.064Z,23.38
2022-10-31T21:32:31.258Z,21.67
2022-10-31T21:35:03.422Z,23.05
2022-10-31T21:37:36.431Z,22.02
2022-10-31T21:40:09.077Z,25.55
2022-10-31T21:42:41.190Z,23.75
2022-10-31T21:45:13.322Z,22.95
2022-10-31T21:47:45.489Z,23.13
2022-10-31T21:50:18.243Z,24.33
2022-10-31T21:52:50.304Z,23.37
2022-10-31T21:55:22.525Z,21.77
2022-10-31T21:57:54.500Z,25.50
2022-10-31T22:00:27.087Z,23.65
2022-10-31T22:02:59.165Z,22.00
2022-10-31T22:05:31.195Z,22.58
2022-10-31T22:08:03.860Z,20.88
2022-10-31T22:10:36.275Z,20.42
2022-10-31T22:13:08.410Z,22.30
2022-10-31T22:15:40.443Z,22.83
2022-10-31T22:18:12.710Z,20.52
2022-10-31T22:20:45.140Z,22.02
2022-10-31T22:23:17.156Z,21.95
2022-10-31T22:25:49.500Z,20.00
2022-10-31T22:28:21.518Z,22.23
2022-10-31T22:30:53.632Z,23.55
2022-10-31T22:33:26.394Z,21.95
2022-10-31T22:36:05.810Z,23.67
2022-10-31T22:38:40.245Z,20.52
2022-10-31T22:41:21.025Z,19.85
2022-10-31T22:43:54.554Z,20.02
2022-10-31T22:46:29.491Z,19.85
2022-10-31T22:49:04.578Z,19.27
2022-10-31T22:51:39.221Z,18.25
2022-10-31T22:54:16.424Z,16.27
2022-10-31T22:56:48.413Z,16.85
2022-10-31T22:59:20.754Z,16.60
2022-10-31T23:01:54.486Z,17.17
2022-10-31T23:04:26.745Z,15.98
2022-10-31T23:06:58.794Z,15.80
2022-10-31T23:09:31.007Z,16.75
2022-10-31T23:12:29.107Z,16.08
2022-10-31T23:15:01.104Z,15.55
2022-10-31T23:17:33.199Z,14.52
2022-10-31T23:20:07.038Z,13.75
2022-10-31T23:25:10.938Z,12.60
2022-10-31T23:27:42.921Z,13.05
2022-10-31T23:30:14.943Z,14.00
2022-10-31T23:32:46.925Z,13.75
2022-10-31T23:35:18.972Z,14.07
2022-10-31T23:37:50.932Z,11.35
2022-10-31T23:40:22.901Z,12.85
2022-10-31T23:42:54.957Z,11.10
2022-10-31T23:45:28.589Z,12.50
2022-10-31T23:50:32.857Z,11.00
2022-10-31T23:53:05.005Z,10.80
2022-10-31T23:55:37.655Z,10.32
2022-10-31T23:58:09.645Z,11.45
